sensor_id;sensor_type;location;lat;lon;timestamp;pressure;altitude;pressure_sealevel;temperature;humidity
75891;BME280;64571;47.512;19.054;2023-05-07T00:02:42;100418.88;;;17.09;69.32
75891;BME280;64571;47.512;19.054;2023-05-07T00:05:45;100436.03;;;17.16;69.59
75891;BME280;64571;47.512;19.054;2023-05-07T00:08:48;100433.87;;;17.13;69.58
75891;BME280;64571;47.512;19.054;2023-05-07T00:11:51;100415.78;;;17.02;69.82
75891;BME280;64571;47.512;19.054;2023-05-07T00:14:53;100425.47;;;17.13;69.78
75891;BME280;64571;47.512;19.054;2023-05-07T00:17:56;100414.62;;;17.03;69.53
75891;BME280;64571;47.512;19.054;2023-05-07T00:20:59;100441.34;;;17.09;69.65
75891;BME280;64571;47.512;19.054;2023-05-07T00:24:02;100417.91;;;17.05;69.46
75891;BME280;64571;47.512;19.054;2023-05-07T00:27:05;100439.00;;;17.11;68.92
75891;BME280;64571;47.512;19.054;2023-05-07T00:30:08;100440.13;;;16.98;70.43
75891;BME280;64571;47.512;19.054;2023-05-07T00:33:11;100425.00;;;16.81;71.30
75891;BME280;64571;47.512;19.054;2023-05-07T00:36:13;100437.22;;;16.85;71.77
75891;BME280;64571;47.512;19.054;2023-05-07T00:39:16;100441.19;;;16.84;72.13
75891;BME280;64571;47.512;19.054;2023-05-07T00:42:19;100420.75;;;16.75;72.12
75891;BME280;64571;47.512;19.054;2023-05-07T00:45:21;100441.19;;;16.84;72.45
75891;BME280;64571;47.512;19.054;2023-05-07T00:48:24;100453.22;;;16.85;72.73
75891;BME280;64571;47.512;19.054;2023-05-07T00:51:28;100447.25;;;16.86;72.74
75891;BME280;64571;47.512;19.054;2023-05-07T00:54:32;100442.81;;;16.85;73.07
75891;BME280;64571;47.512;19.054;2023-05-07T00:57:40;100453.22;;;16.85;73.27
75891;BME280;64571;47.512;19.054;2023-05-07T01:00:44;100445.00;;;16.80;73.67
75891;BME280;64571;47.512;19.054;2023-05-07T01:03:46;100433.84;;;16.62;74.40
75891;BME280;64571;47.512;19.054;2023-05-07T01:06:50;100445.03;;;16.71;74.54
75891;BME280;64571;47.512;19.054;2023-05-07T01:09:53;100431.84;;;16.63;74.78
75891;BME280;64571;47.512;19.054;2023-05-07T01:12:58;100444.34;;;16.74;74.66
75891;BME280;64571;47.512;19.054;2023-05-07T01:16:01;100447.31;;;16.69;74.59
75891;BME280;64571;47.512;19.054;2023-05-07T01:19:05;100454.31;;;16.63;74.50
75891;BME280;64571;47.512;19.054;2023-05-07T01:22:09;100458.59;;;16.60;74.02
75891;BME280;64571;47.512;19.054;2023-05-07T01:25:16;100456.94;;;16.59;73.74
75891;BME280;64571;47.512;19.054;2023-05-07T01:28:19;100446.63;;;16.42;73.83
75891;BME280;64571;47.512;19.054;2023-05-07T01:31:23;100465.59;;;16.45;73.89
75891;BME280;64571;47.512;19.054;2023-05-07T01:34:31;100467.09;;;16.43;74.08
75891;BME280;64571;47.512;19.054;2023-05-07T01:37:35;100459.19;;;16.36;74.18
75891;BME280;64571;47.512;19.054;2023-05-07T01:40:38;100464.16;;;16.39;74.66
75891;BME280;64571;47.512;19.054;2023-05-07T01:43:41;100449.00;;;16.23;75.37
75891;BME280;64571;47.512;19.054;2023-05-07T01:46:45;100450.50;;;16.20;75.71
75891;BME280;64571;47.512;19.054;2023-05-07T01:49:48;100456.59;;;16.23;76.19
75891;BME280;64571;47.512;19.054;2023-05-07T01:52:51;100445.25;;;16.10;76.60
75891;BME280;64571;47.512;19.054;2023-05-07T01:55:54;100455.00;;;16.13;76.88
75891;BME280;64571;47.512;19.054;2023-05-07T01:58:57;100439.66;;;16.02;77.11
75891;BME280;64571;47.512;19.054;2023-05-07T02:02:00;100449.56;;;16.08;77.17
75891;BME280;64571;47.512;19.054;2023-05-07T02:05:04;100431.25;;;16.02;76.85
75891;BME280;64571;47.512;19.054;2023-05-07T02:08:07;100427.16;;;15.99;76.91
75891;BME280;64571;47.512;19.054;2023-05-07T02:11:09;100422.22;;;15.96;77.08
75891;BME280;64571;47.512;19.054;2023-05-07T02:14:12;100421.22;;;15.92;77.17
75891;BME280;64571;47.512;19.054;2023-05-07T02:17:14;100435.38;;;16.04;77.13
75891;BME280;64571;47.512;19.054;2023-05-07T02:20:17;100438.50;;;16.03;77.47
75891;BME280;64571;47.512;19.054;2023-05-07T02:23:20;100424.53;;;15.94;77.60
75891;BME280;64571;47.512;19.054;2023-05-07T02:26:23;100442.31;;;15.98;77.70
75891;BME280;64571;47.512;19.054;2023-05-07T02:29:25;100447.78;;;15.94;77.94
75891;BME280;64571;47.512;19.054;2023-05-07T02:32:28;100441.66;;;15.92;78.02
75891;BME280;64571;47.512;19.054;2023-05-07T02:35:31;100424.69;;;15.80;77.96
75891;BME280;64571;47.512;19.054;2023-05-07T02:38:34;100429.50;;;15.80;77.71
75891;BME280;64571;47.512;19.054;2023-05-07T02:41:36;100420.28;;;15.70;77.56
75891;BME280;64571;47.512;19.054;2023-05-07T02:44:39;100431.28;;;15.84;77.44
75891;BME280;64571;47.512;19.054;2023-05-07T02:47:41;100421.06;;;15.88;76.93
75891;BME280;64571;47.512;19.054;2023-05-07T02:50:44;100436.06;;;15.92;76.74
75891;BME280;64571;47.512;19.054;2023-05-07T02:53:47;100437.22;;;15.91;76.44
75891;BME280;64571;47.512;19.054;2023-05-07T02:56:50;100441.38;;;15.85;76.49
75891;BME280;64571;47.512;19.054;2023-05-07T02:59:53;100421.41;;;15.61;77.33
75891;BME280;64571;47.512;19.054;2023-05-07T03:02:56;100444.03;;;15.64;77.24
75891;BME280;64571;47.512;19.054;2023-05-07T03:05:59;100444.66;;;15.53;78.11
75891;BME280;64571;47.512;19.054;2023-05-07T03:09:02;100417.81;;;15.34;78.97
75891;BME280;64571;47.512;19.054;2023-05-07T03:12:04;100441.72;;;15.40;79.33
75891;BME280;64571;47.512;19.054;2023-05-07T03:15:08;100425.22;;;15.30;79.33
75891;BME280;64571;47.512;19.054;2023-05-07T03:18:10;100437.75;;;15.33;79.67
75891;BME280;64571;47.512;19.054;2023-05-07T03:21:13;100426.38;;;15.20;79.73
75891;BME280;64571;47.512;19.054;2023-05-07T03:24:16;100441.69;;;15.32;79.42
75891;BME280;64571;47.512;19.054;2023-05-07T03:27:18;100441.19;;;15.38;78.96
75891;BME280;64571;47.512;19.054;2023-05-07T03:30:22;100442.19;;;15.42;78.79
75891;BME280;64571;47.512;19.054;2023-05-07T03:33:24;100448.13;;;15.50;78.42
75891;BME280;64571;47.512;19.054;2023-05-07T03:36:28;100448.44;;;15.57;78.09
75891;BME280;64571;47.512;19.054;2023-05-07T03:39:30;100437.75;;;15.59;77.66
75891;BME280;64571;47.512;19.054;2023-05-07T03:42:35;100442.03;;;15.74;77.25
75891;BME280;64571;47.512;19.054;2023-05-07T03:45:38;100445.00;;;15.77;76.88
75891;BME280;64571;47.512;19.054;2023-05-07T03:48:41;100433.47;;;15.70;77.00
75891;BME280;64571;47.512;19.054;2023-05-07T03:51:44;100440.69;;;15.80;76.98
75891;BME280;64571;47.512;19.054;2023-05-07T03:54:46;100442.69;;;15.79;77.29
75891;BME280;64571;47.512;19.054;2023-05-07T03:57:50;100439.22;;;15.74;77.50
75891;BME280;64571;47.512;19.054;2023-05-07T04:00:53;100434.16;;;15.67;77.82
75891;BME280;64571;47.512;19.054;2023-05-07T04:03:56;100454.06;;;15.65;78.52
75891;BME280;64571;47.512;19.054;2023-05-07T04:06:59;100459.47;;;15.53;78.90
75891;BME280;64571;47.512;19.054;2023-05-07T04:10:04;100456.69;;;15.53;78.51
75891;BME280;64571;47.512;19.054;2023-05-07T04:13:07;100459.16;;;15.46;78.54
75891;BME280;64571;47.512;19.054;2023-05-07T04:16:10;100456.38;;;15.46;78.36
75891;BME280;64571;47.512;19.054;2023-05-07T04:19:12;100441.84;;;15.35;77.94
75891;BME280;64571;47.512;19.054;2023-05-07T04:22:15;100459.34;;;15.50;77.86
75891;BME280;64571;47.512;19.054;2023-05-07T04:25:18;100461.31;;;15.49;77.62
75891;BME280;64571;47.512;19.054;2023-05-07T04:28:21;100472.84;;;15.48;77.72
75891;BME280;64571;47.512;19.054;2023-05-07T04:31:24;100473.66;;;15.48;77.50
75891;BME280;64571;47.512;19.054;2023-05-07T04:34:28;100467.91;;;15.44;77.39
75891;BME280;64571;47.512;19.054;2023-05-07T04:37:32;100488.81;;;15.56;77.17
75891;BME280;64571;47.512;19.054;2023-05-07T04:40:35;100483.38;;;15.59;77.01
75891;BME280;64571;47.512;19.054;2023-05-07T04:43:38;100464.78;;;15.55;76.93
75891;BME280;64571;47.512;19.054;2023-05-07T04:46:41;100480.63;;;15.68;76.74
75891;BME280;64571;47.512;19.054;2023-05-07T04:49:44;100463.47;;;15.69;76.52
75891;BME280;64571;47.512;19.054;2023-05-07T04:52:47;100484.22;;;15.94;75.72
75891;BME280;64571;47.512;19.054;2023-05-07T04:55:55;100485.84;;;16.04;75.34
75891;BME280;64571;47.512;19.054;2023-05-07T04:58:59;100478.69;;;16.24;74.60
75891;BME280;64571;47.512;19.054;2023-05-07T05:02:02;100486.28;;;16.32;74.13
75891;BME280;64571;47.512;19.054;2023-05-07T05:05:07;100470.28;;;16.24;74.04
75891;BME280;64571;47.512;19.054;2023-05-07T05:08:10;100469.12;;;16.25;74.12
75891;BME280;64571;47.512;19.054;2023-05-07T05:11:13;100490.88;;;16.37;74.39
75891;BME280;64571;47.512;19.054;2023-05-07T05:14:17;100495.31;;;16.38;74.27
75891;BME280;64571;47.512;19.054;2023-05-07T05:17:20;100497.81;;;16.39;74.25
75891;BME280;64571;47.512;19.054;2023-05-07T05:20:22;100493.50;;;16.42;73.99
75891;BME280;64571;47.512;19.054;2023-05-07T05:23:25;100487.84;;;16.51;73.81
75891;BME280;64571;47.512;19.054;2023-05-07T05:26:28;100494.81;;;16.44;73.95
75891;BME280;64571;47.512;19.054;2023-05-07T05:29:31;100489.69;;;16.46;74.24
75891;BME280;64571;47.512;19.054;2023-05-07T05:32:34;100499.25;;;16.45;74.29
75891;BME280;64571;47.512;19.054;2023-05-07T05:35:37;100503.34;;;16.57;74.05
75891;BME280;64571;47.512;19.054;2023-05-07T05:38:40;100504.38;;;16.43;74.60
75891;BME280;64571;47.512;19.054;2023-05-07T05:41:43;100499.13;;;16.33;75.19
75891;BME280;64571;47.512;19.054;2023-05-07T05:44:47;100480.31;;;16.34;74.88
75891;BME280;64571;47.512;19.054;2023-05-07T05:47:50;100489.84;;;16.50;74.54
75891;BME280;64571;47.512;19.054;2023-05-07T05:50:53;100485.69;;;16.56;74.33
75891;BME280;64571;47.512;19.054;2023-05-07T05:53:55;100490.16;;;16.57;74.34
75891;BME280;64571;47.512;19.054;2023-05-07T05:56:58;100494.53;;;16.84;73.71
75891;BME280;64571;47.512;19.054;2023-05-07T06:00:02;100487.19;;;17.42;71.59
75891;BME280;64571;47.512;19.054;2023-05-07T06:03:07;100496.72;;;17.71;70.52
75891;BME280;64571;47.512;19.054;2023-05-07T06:06:10;100496.84;;;18.16;69.41
75891;BME280;64571;47.512;19.054;2023-05-07T06:09:13;100490.75;;;18.27;68.95
75891;BME280;64571;47.512;19.054;2023-05-07T06:12:16;100488.19;;;18.34;68.95
75891;BME280;64571;47.512;19.054;2023-05-07T06:15:18;100484.00;;;18.52;68.94
75891;BME280;64571;47.512;19.054;2023-05-07T06:18:22;100477.03;;;18.83;67.40
75891;BME280;64571;47.512;19.054;2023-05-07T06:21:25;100485.22;;;19.00;66.57
75891;BME280;64571;47.512;19.054;2023-05-07T06:24:29;100496.16;;;19.14;66.07
75891;BME280;64571;47.512;19.054;2023-05-07T06:27:32;100483.44;;;19.32;65.70
75891;BME280;64571;47.512;19.054;2023-05-07T06:30:36;100491.72;;;19.53;65.13
75891;BME280;64571;47.512;19.054;2023-05-07T06:33:39;100496.91;;;19.63;64.99
75891;BME280;64571;47.512;19.054;2023-05-07T06:36:43;100496.72;;;19.84;64.21
75891;BME280;64571;47.512;19.054;2023-05-07T06:39:46;100498.97;;;20.07;62.92
75891;BME280;64571;47.512;19.054;2023-05-07T06:42:49;100498.09;;;20.18;62.47
75891;BME280;64571;47.512;19.054;2023-05-07T06:45:52;100487.63;;;20.35;62.23
75891;BME280;64571;47.512;19.054;2023-05-07T06:48:56;100492.28;;;20.27;62.22
75891;BME280;64571;47.512;19.054;2023-05-07T06:52:00;100475.44;;;20.46;59.80
75891;BME280;64571;47.512;19.054;2023-05-07T06:55:04;100497.06;;;20.11;60.76
75891;BME280;64571;47.512;19.054;2023-05-07T06:58:07;100501.72;;;20.19;60.25
75891;BME280;64571;47.512;19.054;2023-05-07T07:01:10;100488.53;;;20.67;58.71
75891;BME280;64571;47.512;19.054;2023-05-07T07:04:12;100490.06;;;20.64;57.98
75891;BME280;64571;47.512;19.054;2023-05-07T07:07:16;100488.22;;;20.40;59.10
75891;BME280;64571;47.512;19.054;2023-05-07T07:10:19;100496.47;;;20.33;57.98
75891;BME280;64571;47.512;19.054;2023-05-07T07:13:23;100497.66;;;20.76;57.00
75891;BME280;64571;47.512;19.054;2023-05-07T07:16:26;100505.84;;;20.81;56.37
75891;BME280;64571;47.512;19.054;2023-05-07T07:19:29;100493.59;;;20.45;57.23
75891;BME280;64571;47.512;19.054;2023-05-07T07:22:31;100488.56;;;20.39;56.72
75891;BME280;64571;47.512;19.054;2023-05-07T07:25:35;100509.50;;;20.38;57.82
75891;BME280;64571;47.512;19.054;2023-05-07T07:28:47;100516.19;;;20.45;58.01
75891;BME280;64571;47.512;19.054;2023-05-07T07:31:50;100510.94;;;20.60;57.38
75891;BME280;64571;47.512;19.054;2023-05-07T07:34:53;100524.69;;;20.61;57.93
75891;BME280;64571;47.512;19.054;2023-05-07T07:37:56;100516.78;;;20.67;57.96
75891;BME280;64571;47.512;19.054;2023-05-07T07:41:00;100510.56;;;20.77;57.63
75891;BME280;64571;47.512;19.054;2023-05-07T07:44:03;100523.66;;;21.33;56.65
75891;BME280;64571;47.512;19.054;2023-05-07T07:47:09;100526.38;;;21.29;56.94
75891;BME280;64571;47.512;19.054;2023-05-07T07:50:13;100514.13;;;21.57;56.01
75891;BME280;64571;47.512;19.054;2023-05-07T07:53:36;100507.72;;;21.60;55.73
75891;BME280;64571;47.512;19.054;2023-05-07T07:56:39;100523.25;;;21.85;55.22
75891;BME280;64571;47.512;19.054;2023-05-07T07:59:42;100527.28;;;22.04;53.85
75891;BME280;64571;47.512;19.054;2023-05-07T08:02:46;100512.06;;;21.92;53.22
75891;BME280;64571;47.512;19.054;2023-05-07T08:05:51;100527.53;;;21.60;54.35
75891;BME280;64571;47.512;19.054;2023-05-07T08:08:54;100529.84;;;21.54;54.65
75891;BME280;64571;47.512;19.054;2023-05-07T08:11:57;100537.50;;;21.54;53.90
75891;BME280;64571;47.512;19.054;2023-05-07T08:15:00;100530.22;;;21.53;53.50
75891;BME280;64571;47.512;19.054;2023-05-07T08:18:03;100533.91;;;21.57;52.80
75891;BME280;64571;47.512;19.054;2023-05-07T08:21:05;100525.28;;;21.49;51.72
75891;BME280;64571;47.512;19.054;2023-05-07T08:24:08;100527.12;;;21.42;52.02
75891;BME280;64571;47.512;19.054;2023-05-07T08:27:10;100516.72;;;21.30;52.33
75891;BME280;64571;47.512;19.054;2023-05-07T08:30:15;100512.28;;;21.13;52.42
75891;BME280;64571;47.512;19.054;2023-05-07T08:33:18;100520.47;;;21.34;52.12
75891;BME280;64571;47.512;19.054;2023-05-07T08:36:20;100506.06;;;21.23;51.75
75891;BME280;64571;47.512;19.054;2023-05-07T08:39:23;100504.69;;;21.33;50.75
75891;BME280;64571;47.512;19.054;2023-05-07T08:42:27;100508.59;;;21.29;51.42
75891;BME280;64571;47.512;19.054;2023-05-07T08:45:33;100500.59;;;21.31;51.44
75891;BME280;64571;47.512;19.054;2023-05-07T08:48:36;100517.91;;;21.45;51.30
75891;BME280;64571;47.512;19.054;2023-05-07T08:51:41;100495.38;;;21.68;50.96
75891;BME280;64571;47.512;19.054;2023-05-07T08:54:44;100503.72;;;21.99;50.54
75891;BME280;64571;47.512;19.054;2023-05-07T08:57:47;100523.97;;;22.02;50.26
75891;BME280;64571;47.512;19.054;2023-05-07T09:00:52;100521.59;;;22.04;49.53
75891;BME280;64571;47.512;19.054;2023-05-07T09:03:57;100510.44;;;21.91;49.96
75891;BME280;64571;47.512;19.054;2023-05-07T09:07:01;100520.59;;;22.12;48.56
75891;BME280;64571;47.512;19.054;2023-05-07T09:10:08;100524.00;;;22.21;47.05
75891;BME280;64571;47.512;19.054;2023-05-07T09:13:12;100519.81;;;22.34;47.34
75891;BME280;64571;47.512;19.054;2023-05-07T09:16:20;100518.56;;;22.32;48.03
75891;BME280;64571;47.512;19.054;2023-05-07T09:19:24;100517.03;;;22.38;48.21
75891;BME280;64571;47.512;19.054;2023-05-07T09:22:27;100504.78;;;22.30;47.74
75891;BME280;64571;47.512;19.054;2023-05-07T09:25:31;100519.81;;;22.34;48.72
75891;BME280;64571;47.512;19.054;2023-05-07T09:28:34;100524.87;;;22.44;49.23
75891;BME280;64571;47.512;19.054;2023-05-07T09:31:37;100503.75;;;22.42;49.47
75891;BME280;64571;47.512;19.054;2023-05-07T09:34:41;100510.78;;;22.71;49.06
75891;BME280;64571;47.512;19.054;2023-05-07T09:37:45;100520.09;;;23.17;48.04
75891;BME280;64571;47.512;19.054;2023-05-07T09:41:04;100505.22;;;23.24;47.91
75891;BME280;64571;47.512;19.054;2023-05-07T09:44:07;100516.38;;;22.67;49.21
75891;BME280;64571;47.512;19.054;2023-05-07T09:47:16;100514.03;;;22.92;48.94
75891;BME280;64571;47.512;19.054;2023-05-07T09:50:28;100498.88;;;23.08;48.76
75891;BME280;64571;47.512;19.054;2023-05-07T09:53:31;100515.34;;;22.98;49.33
75891;BME280;64571;47.512;19.054;2023-05-07T09:56:36;100515.72;;;22.97;49.15
75891;BME280;64571;47.512;19.054;2023-05-07T09:59:42;100510.03;;;22.74;50.06
75891;BME280;64571;47.512;19.054;2023-05-07T10:02:50;100502.19;;;22.44;50.89
75891;BME280;64571;47.512;19.054;2023-05-07T10:05:56;100518.66;;;22.58;50.78
75891;BME280;64571;47.512;19.054;2023-05-07T10:09:02;100520.22;;;22.56;51.09
75891;BME280;64571;47.512;19.054;2023-05-07T10:12:06;100513.53;;;22.44;51.37
75891;BME280;64571;47.512;19.054;2023-05-07T10:15:11;100513.78;;;22.36;51.71
75891;BME280;64571;47.512;19.054;2023-05-07T10:18:15;100509.03;;;22.20;51.95
75891;BME280;64571;47.512;19.054;2023-05-07T10:21:21;100523.94;;;22.17;52.26
75891;BME280;64571;47.512;19.054;2023-05-07T10:24:27;100521.41;;;22.12;52.63
75891;BME280;64571;47.512;19.054;2023-05-07T10:27:32;100516.38;;;22.06;52.51
75891;BME280;64571;47.512;19.054;2023-05-07T10:33:59;100515.34;;;22.33;51.33
75891;BME280;64571;47.512;19.054;2023-05-07T10:37:05;100500.78;;;22.12;52.68
75891;BME280;64571;47.512;19.054;2023-05-07T10:40:09;100512.69;;;22.21;53.07
75891;BME280;64571;47.512;19.054;2023-05-07T10:43:12;100515.88;;;22.19;53.22
75891;BME280;64571;47.512;19.054;2023-05-07T10:46:17;100503.31;;;22.17;53.44
75891;BME280;64571;47.512;19.054;2023-05-07T10:49:20;100501.91;;;22.11;53.71
75891;BME280;64571;47.512;19.054;2023-05-07T10:52:26;100508.28;;;22.04;53.40
75891;BME280;64571;47.512;19.054;2023-05-07T10:55:29;100504.31;;;22.28;52.97
75891;BME280;64571;47.512;19.054;2023-05-07T10:58:32;100504.47;;;22.35;52.79
75891;BME280;64571;47.512;19.054;2023-05-07T11:05:30;100508.94;;;22.82;50.39
75891;BME280;64571;47.512;19.054;2023-05-07T11:11:55;100506.19;;;23.35;47.08
75891;BME280;64571;47.512;19.054;2023-05-07T11:14:59;100500.91;;;23.64;45.60
75891;BME280;64571;47.512;19.054;2023-05-07T11:18:02;100496.75;;;23.84;45.02
75891;BME280;64571;47.512;19.054;2023-05-07T11:21:07;100490.38;;;23.94;43.49
75891;BME280;64571;47.512;19.054;2023-05-07T11:24:10;100482.84;;;23.75;43.38
75891;BME280;64571;47.512;19.054;2023-05-07T11:27:14;100490.84;;;23.96;42.88
75891;BME280;64571;47.512;19.054;2023-05-07T11:30:17;100485.06;;;23.89;43.24
75891;BME280;64571;47.512;19.054;2023-05-07T11:33:23;100502.38;;;23.81;43.44
75891;BME280;64571;47.512;19.054;2023-05-07T11:36:31;100501.50;;;23.77;44.02
75891;BME280;64571;47.512;19.054;2023-05-07T11:39:35;100501.22;;;23.29;44.62
75891;BME280;64571;47.512;19.054;2023-05-07T11:42:40;100502.50;;;23.61;44.05
75891;BME280;64571;47.512;19.054;2023-05-07T11:45:45;100490.03;;;23.39;44.33
75891;BME280;64571;47.512;19.054;2023-05-07T11:48:48;100494.37;;;23.60;42.36
75891;BME280;64571;47.512;19.054;2023-05-07T11:51:51;100478.72;;;24.03;42.00
75891;BME280;64571;47.512;19.054;2023-05-07T11:54:58;100494.47;;;24.31;41.63
75891;BME280;64571;47.512;19.054;2023-05-07T11:58:02;100487.03;;;24.19;40.41
75891;BME280;64571;47.512;19.054;2023-05-07T12:01:07;100473.56;;;24.46;39.98
75891;BME280;64571;47.512;19.054;2023-05-07T12:04:11;100477.03;;;24.32;40.66
75891;BME280;64571;47.512;19.054;2023-05-07T12:07:14;100480.41;;;24.41;39.97
75891;BME280;64571;47.512;19.054;2023-05-07T12:10:17;100479.69;;;24.96;38.87
75891;BME280;64571;47.512;19.054;2023-05-07T12:13:24;100469.25;;;25.11;38.27
75891;BME280;64571;47.512;19.054;2023-05-07T12:16:27;100480.06;;;24.94;37.41
75891;BME280;64571;47.512;19.054;2023-05-07T12:19:31;100471.53;;;24.94;37.49
75891;BME280;64571;47.512;19.054;2023-05-07T12:22:34;100466.59;;;24.88;38.43
75891;BME280;64571;47.512;19.054;2023-05-07T12:25:38;100463.00;;;25.53;37.69
75891;BME280;64571;47.512;19.054;2023-05-07T12:28:41;100474.19;;;25.87;37.15
75891;BME280;64571;47.512;19.054;2023-05-07T12:31:43;100472.97;;;25.91;37.31
75891;BME280;64571;47.512;19.054;2023-05-07T12:34:49;100458.59;;;25.66;37.31
75891;BME280;64571;47.512;19.054;2023-05-07T12:37:56;100473.12;;;25.40;37.72
75891;BME280;64571;47.512;19.054;2023-05-07T12:41:01;100463.56;;;25.80;36.98
75891;BME280;64571;47.512;19.054;2023-05-07T12:44:04;100469.34;;;25.94;36.02
75891;BME280;64571;47.512;19.054;2023-05-07T12:47:08;100454.28;;;26.01;36.15
75891;BME280;64571;47.512;19.054;2023-05-07T12:50:10;100462.75;;;25.10;37.22
75891;BME280;64571;47.512;19.054;2023-05-07T12:53:13;100446.63;;;25.32;37.19
75891;BME280;64571;47.512;19.054;2023-05-07T12:56:17;100460.66;;;25.73;35.64
75891;BME280;64571;47.512;19.054;2023-05-07T12:59:19;100461.19;;;25.20;36.00
75891;BME280;64571;47.512;19.054;2023-05-07T13:02:39;100463.00;;;25.49;35.57
75891;BME280;64571;47.512;19.054;2023-05-07T13:05:43;100460.00;;;26.05;34.86
75891;BME280;64571;47.512;19.054;2023-05-07T13:08:45;100446.94;;;25.96;35.48
75891;BME280;64571;47.512;19.054;2023-05-07T13:11:48;100446.13;;;25.96;35.75
75891;BME280;64571;47.512;19.054;2023-05-07T13:14:50;100439.97;;;25.83;35.99
75891;BME280;64571;47.512;19.054;2023-05-07T13:17:53;100454.97;;;25.73;36.04
75891;BME280;64571;47.512;19.054;2023-05-07T13:20:55;100450.41;;;25.58;36.15
75891;BME280;64571;47.512;19.054;2023-05-07T13:23:58;100436.31;;;25.79;35.95
75891;BME280;64571;47.512;19.054;2023-05-07T13:27:01;100445.09;;;25.52;36.30
75891;BME280;64571;47.512;19.054;2023-05-07T13:30:04;100435.38;;;25.57;35.98
75891;BME280;64571;47.512;19.054;2023-05-07T13:33:07;100420.63;;;25.37;36.08
75891;BME280;64571;47.512;19.054;2023-05-07T13:36:10;100443.72;;;25.25;36.39
75891;BME280;64571;47.512;19.054;2023-05-07T13:39:12;100432.16;;;25.69;35.89
75891;BME280;64571;47.512;19.054;2023-05-07T13:42:15;100422.50;;;25.08;37.31
75891;BME280;64571;47.512;19.054;2023-05-07T13:45:18;100428.94;;;25.74;36.71
75891;BME280;64571;47.512;19.054;2023-05-07T13:48:21;100416.81;;;25.88;36.57
75891;BME280;64571;47.512;19.054;2023-05-07T13:51:23;100415.81;;;24.86;38.12
75891;BME280;64571;47.512;19.054;2023-05-07T13:54:26;100428.00;;;24.87;38.27
75891;BME280;64571;47.512;19.054;2023-05-07T13:57:28;100419.47;;;24.87;38.40
75891;BME280;64571;47.512;19.054;2023-05-07T14:00:31;100407.50;;;25.15;38.09
75891;BME280;64571;47.512;19.054;2023-05-07T14:03:34;100405.31;;;24.97;38.41
75891;BME280;64571;47.512;19.054;2023-05-07T14:06:37;100426.94;;;25.06;38.60
75891;BME280;64571;47.512;19.054;2023-05-07T14:09:40;100418.06;;;25.14;38.21
75891;BME280;64571;47.512;19.054;2023-05-07T14:12:44;100424.84;;;25.02;37.79
75891;BME280;64571;47.512;19.054;2023-05-07T14:15:47;100425.94;;;24.84;37.15
75891;BME280;64571;47.512;19.054;2023-05-07T14:18:51;100420.69;;;24.86;36.76
75891;BME280;64571;47.512;19.054;2023-05-07T14:21:53;100417.06;;;24.92;37.13
75891;BME280;64571;47.512;19.054;2023-05-07T14:24:59;100408.03;;;24.80;37.05
75891;BME280;64571;47.512;19.054;2023-05-07T14:28:09;100422.12;;;25.13;37.11
75891;BME280;64571;47.512;19.054;2023-05-07T14:31:12;100427.81;;;24.62;38.29
75891;BME280;64571;47.512;19.054;2023-05-07T14:34:15;100431.41;;;24.55;38.27
75891;BME280;64571;47.512;19.054;2023-05-07T14:37:17;100427.91;;;24.72;37.90
75891;BME280;64571;47.512;19.054;2023-05-07T14:40:22;100424.91;;;24.55;38.01
75891;BME280;64571;47.512;19.054;2023-05-07T14:43:24;100432.09;;;24.41;38.61
75891;BME280;64571;47.512;19.054;2023-05-07T14:46:27;100431.66;;;24.39;39.15
75891;BME280;64571;47.512;19.054;2023-05-07T14:49:29;100428.00;;;24.39;38.91
75891;BME280;64571;47.512;19.054;2023-05-07T14:52:32;100434.25;;;24.55;38.75
75891;BME280;64571;47.512;19.054;2023-05-07T14:55:35;100430.59;;;23.80;39.45
75891;BME280;64571;47.512;19.054;2023-05-07T14:58:37;100441.31;;;23.94;39.78
75891;BME280;64571;47.512;19.054;2023-05-07T15:01:40;100445.34;;;23.93;40.52
75891;BME280;64571;47.512;19.054;2023-05-07T15:04:47;100426.66;;;23.88;40.44
75891;BME280;64571;47.512;19.054;2023-05-07T15:07:50;100441.59;;;24.19;40.05
75891;BME280;64571;47.512;19.054;2023-05-07T15:10:53;100426.34;;;23.97;40.80
75891;BME280;64571;47.512;19.054;2023-05-07T15:13:57;100440.50;;;23.93;41.46
75891;BME280;64571;47.512;19.054;2023-05-07T15:16:59;100447.75;;;23.91;41.64
75891;BME280;64571;47.512;19.054;2023-05-07T15:20:02;100432.38;;;23.92;41.61
75891;BME280;64571;47.512;19.054;2023-05-07T15:23:08;100451.66;;;24.13;41.30
75891;BME280;64571;47.512;19.054;2023-05-07T15:26:18;100454.66;;;23.60;42.31
75891;BME280;64571;47.512;19.054;2023-05-07T15:29:21;100441.78;;;23.66;41.90
75891;BME280;64571;47.512;19.054;2023-05-07T15:32:23;100439.38;;;23.68;41.91
75891;BME280;64571;47.512;19.054;2023-05-07T15:35:26;100446.69;;;23.69;41.45
75891;BME280;64571;47.512;19.054;2023-05-07T15:38:29;100447.13;;;23.71;40.97
75891;BME280;64571;47.512;19.054;2023-05-07T15:41:32;100439.97;;;23.54;40.94
75891;BME280;64571;47.512;19.054;2023-05-07T15:44:35;100448.88;;;23.53;40.43
75891;BME280;64571;47.512;19.054;2023-05-07T15:47:39;100438.91;;;23.36;40.58
75891;BME280;64571;47.512;19.054;2023-05-07T15:50:41;100442.56;;;23.36;40.54
75891;BME280;64571;47.512;19.054;2023-05-07T15:53:44;100442.84;;;23.28;40.37
75891;BME280;64571;47.512;19.054;2023-05-07T15:56:47;100448.50;;;23.24;40.50
75891;BME280;64571;47.512;19.054;2023-05-07T15:59:50;100453.94;;;23.10;40.29